Huvudsida
METAR-TAF:

METAR-TAF

Flygplatser :

Jerez flygplats

Jerez de la Frontera, Spanien

latitud: 36-45N, longitud: 006-04W, höjd: 27 m

Aktuellt väderrapport

Denna rapport gjordes för 20 minuter sedan, klockan 20:00 UTC
Vind 5 kt från syd
Temperatur 26°C
Fuktighet 74%
Tryck 1018 hPa
Sikt 10 km eller mer
Inga moln under 1 500 m eller inga cumulonimbus

METAR: LEJR 212000Z 19005KT CAVOK 26/21 Q1018

Tid: 22:20 (20:20 UTC)

Väderprognos

Denna rapport gjordes för 3 timmar och 20 minuter sedan, klockan 17:00 UTC
Prognos gäller från 21 kl. 18 UTC till 22 kl. 18 UTC
Vind 2 kt varierande vindriktning
Sikt 10 km eller mer
Inga moln under 1 500 m eller inga cumulonimbus
Sannolikhet 40% :
Temporärt
från 21 kl. 18 UTC till 21 kl. 19 UTC
Vind 10 kt från väst
Blir
från 22 kl. 12 UTC till 22 kl. 14 UTC
Vind 11 kt från sydost

TAF: LEJR 211700Z 2118/2218 VRB02KT CAVOK TX37/2215Z TN18/2206Z PROB40 TEMPO 2118/2119 26010KT BECMG 2212/2214 14011KT

Aktuella väderrapporter och prognoser från 4000 flygplatser (METAR- och TAF-rapporter).

De tillgängliga stationerna syns som gula och röda prickar på kartan.

För musen över prickarna för att se namnen på stationerna.

Klicka sedan för att få väderrapporter och prognoser.

För att ändra kartan: Klicka på de gröna knapparna med ett svart kors på för att zooma in; den gröna knappen med ett streck på för att zooma ut; eller på de gröna pilarna för angränsande kartor.


METAR-TAF: